Time;durP1;ratioP1;P1;durP2;ratioP2;P2;SDS_P1;SDS_P2;PMS_P1;PMS_P2;Temp;Humidity;BMP_temperature;BMP_pressure;BME280_temperature;BME280_humidity;BME280_pressure;Samples;Min_cycle;Max_cycle;Signal;HPM_P1;HPM_P2
2021/10/22 00:02:10;;;;;;;6.70;1.13;;;12.70;1.00;;;;;;5055507;28;20202;-74
2021/10/22 00:04:39;;;;;;;5.20;1.65;;;12.60;1.00;;;;;;5070168;28;20202;-73
2021/10/22 00:07:06;;;;;;;3.83;1.15;;;12.60;1.00;;;;;;5069508;28;20208;-80
2021/10/22 00:09:33;;;;;;;3.70;1.30;;;12.50;1.00;;;;;;5070396;28;20211;-82
2021/10/22 00:12:00;;;;;;;6.25;1.83;;;12.40;1.00;;;;;;5073429;28;20202;-85
2021/10/22 00:14:27;;;;;;;11.57;2.38;;;12.30;1.00;;;;;;5074121;28;20619;-79
2021/10/22 00:16:55;;;;;;;5.10;1.50;;;12.40;1.00;;;;;;5073334;28;20206;-81
2021/10/22 00:19:22;;;;;;;6.80;1.85;;;12.40;1.00;;;;;;5073786;28;20700;-85
2021/10/22 00:21:50;;;;;;;6.70;1.65;;;12.30;1.00;;;;;;5074420;28;20210;-84
2021/10/22 00:24:17;;;;;;;6.07;1.45;;;12.30;1.00;;;;;;5073958;28;20206;-77
2021/10/22 00:26:44;;;;;;;6.45;1.80;;;12.30;1.00;;;;;;5073995;28;20217;-78
2021/10/22 00:29:11;;;;;;;3.65;1.10;;;12.40;1.00;;;;;;5072092;28;20255;-79
2021/10/22 00:31:38;;;;;;;4.30;1.35;;;12.40;1.00;;;;;;5073025;28;20206;-77
2021/10/22 00:34:06;;;;;;;5.32;1.55;;;12.40;1.00;;;;;;5073602;28;20210;-78
2021/10/22 00:36:33;;;;;;;3.70;1.15;;;12.30;1.00;;;;;;5073643;28;20766;-83
2021/10/22 00:39:01;;;;;;;5.90;1.30;;;12.30;1.00;;;;;;5072732;28;20222;-80
2021/10/22 00:41:29;;;;;;;8.88;2.55;;;12.30;1.00;;;;;;5073760;28;20213;-80
2021/10/22 00:43:56;;;;;;;2.58;1.02;;;12.30;1.00;;;;;;5072888;28;20275;-74
2021/10/22 00:46:27;;;;;;;3.45;1.27;;;12.60;1.00;;;;;;5072822;28;20669;-74
2021/10/22 00:48:55;;;;;;;4.53;1.58;;;12.60;1.00;;;;;;5072626;28;20677;-78
2021/10/22 00:51:23;;;;;;;3.50;1.17;;;12.70;1.00;;;;;;5073046;28;20284;-77
2021/10/22 00:53:51;;;;;;;3.67;1.48;;;12.80;1.00;;;;;;5073288;28;20205;-79
2021/10/22 00:56:19;;;;;;;6.75;3.25;;;12.80;1.00;;;;;;5073243;28;20234;-77
2021/10/22 00:58:47;;;;;;;5.20;1.40;;;12.90;1.00;;;;;;5073504;28;20622;-82
2021/10/22 01:01:14;;;;;;;3.00;1.40;;;12.80;1.00;;;;;;5073070;28;20210;-82
2021/10/22 01:03:41;;;;;;;4.32;1.08;;;12.80;1.00;;;;;;5073165;28;20206;-81
2021/10/22 01:06:09;;;;;;;2.35;1.30;;;12.80;1.00;;;;;;5072451;28;20209;-79
2021/10/22 01:08:36;;;;;;;4.78;1.30;;;12.80;1.00;;;;;;5072372;28;20244;-76
2021/10/22 01:11:04;;;;;;;5.93;1.83;;;12.70;1.00;;;;;;5072700;28;20206;-77
2021/10/22 01:13:32;;;;;;;5.07;1.10;;;12.70;1.00;;;;;;5072375;28;20202;-77
2021/10/22 01:16:01;;;;;;;5.18;1.45;;;12.70;1.00;;;;;;5072517;28;20283;-75
2021/10/22 01:18:29;;;;;;;8.32;1.40;;;12.50;1.00;;;;;;5072349;28;20210;-75
2021/10/22 01:21:01;;;;;;;10.88;1.90;;;12.50;1.00;;;;;;5072455;28;20241;-78
2021/10/22 01:23:28;;;;;;;2.65;1.10;;;12.60;1.00;;;;;;5072459;28;20212;-76
2021/10/22 01:25:55;;;;;;;4.43;1.67;;;12.60;1.00;;;;;;5072121;28;20248;-77
2021/10/22 01:28:22;;;;;;;2.78;0.90;;;12.70;1.00;;;;;;5072127;28;20670;-76
2021/10/22 01:30:50;;;;;;;4.72;1.10;;;12.80;1.00;;;;;;5072067;28;20210;-76
2021/10/22 01:33:18;;;;;;;4.50;1.30;;;12.70;1.00;;;;;;5072720;28;20621;-76
2021/10/22 01:35:46;;;;;;;5.68;1.20;;;12.70;1.00;;;;;;5071948;28;20245;-76
2021/10/22 01:38:16;;;;;;;4.47;1.25;;;12.60;1.00;;;;;;5071867;28;20271;-75
2021/10/22 01:40:43;;;;;;;3.35;1.00;;;12.50;1.00;;;;;;5072104;28;20215;-76
2021/10/22 01:43:11;;;;;;;4.00;1.40;;;12.40;1.00;;;;;;5071676;28;20202;-76
2021/10/22 01:45:40;;;;;;;6.97;1.50;;;12.30;1.00;;;;;;5071753;28;20210;-76
2021/10/22 01:48:08;;;;;;;4.25;1.50;;;12.10;1.00;;;;;;5071592;28;20211;-76
2021/10/22 01:50:35;;;;;;;5.45;1.98;;;12.00;1.00;;;;;;5072120;28;20217;-76
2021/10/22 01:53:02;;;;;;;4.32;1.90;;;11.90;1.00;;;;;;5071132;28;20653;-76
2021/10/22 01:55:31;;;;;;;5.05;2.40;;;12.00;1.00;;;;;;5071580;28;20267;-76
2021/10/22 01:57:58;;;;;;;6.93;1.60;;;11.90;1.00;;;;;;5070898;28;20251;-76
2021/10/22 02:00:25;;;;;;;4.20;1.10;;;12.00;1.00;;;;;;5071553;28;20241;-76
2021/10/22 02:02:52;;;;;;;3.20;1.50;;;12.00;1.00;;;;;;5071396;28;20210;-76
2021/10/22 02:05:19;;;;;;;4.28;1.50;;;12.00;1.00;;;;;;5071794;28;20210;-76
2021/10/22 02:07:46;;;;;;;2.40;0.82;;;11.90;1.00;;;;;;5071747;28;20576;-76
2021/10/22 02:10:14;;;;;;;3.08;0.95;;;11.80;1.00;;;;;;5071306;28;20202;-76
2021/10/22 02:12:42;;;;;;;4.82;1.20;;;11.80;1.00;;;;;;5071214;28;20210;-76
2021/10/22 02:15:10;;;;;;;4.72;0.90;;;11.80;1.00;;;;;;5070718;28;20686;-76
2021/10/22 02:17:37;;;;;;;3.40;1.42;;;11.80;1.00;;;;;;5071611;28;20202;-76
2021/10/22 02:20:05;;;;;;;2.20;1.00;;;11.80;1.00;;;;;;5070769;28;20227;-76
2021/10/22 02:22:32;;;;;;;4.40;1.73;;;11.80;1.00;;;;;;5071485;28;20263;-76
2021/10/22 02:24:59;;;;;;;4.80;1.00;;;11.80;1.00;;;;;;5070778;28;20210;-76
2021/10/22 02:27:26;;;;;;;6.32;2.45;;;11.80;1.00;;;;;;5071056;28;20210;-76
2021/10/22 02:29:55;;;;;;;2.58;0.85;;;11.80;1.00;;;;;;5070479;28;20632;-77
2021/10/22 02:32:21;;;;;;;2.88;1.30;;;11.80;1.00;;;;;;5070921;28;20203;-76
2021/10/22 02:34:48;;;;;;;5.50;1.13;;;11.80;1.00;;;;;;5071637;28;20263;-76
2021/10/22 02:37:15;;;;;;;3.80;1.10;;;11.70;1.00;;;;;;5070281;28;20748;-77
2021/10/22 02:39:42;;;;;;;3.00;0.90;;;11.70;1.00;;;;;;5070992;28;20674;-76
2021/10/22 02:42:09;;;;;;;5.30;1.80;;;11.70;1.00;;;;;;5070534;28;20210;-75
2021/10/22 02:44:36;;;;;;;2.33;1.02;;;11.70;1.00;;;;;;5071457;28;20256;-76
2021/10/22 02:47:05;;;;;;;4.75;0.80;;;11.70;1.00;;;;;;5070604;28;20210;-75
2021/10/22 02:49:33;;;;;;;3.53;1.23;;;11.70;1.00;;;;;;5070817;28;20655;-74
2021/10/22 02:52:00;;;;;;;8.40;1.25;;;11.60;1.00;;;;;;5070431;28;20256;-74
2021/10/22 02:54:27;;;;;;;3.28;1.05;;;11.60;1.00;;;;;;5070416;28;20209;-75
2021/10/22 02:56:54;;;;;;;3.72;0.75;;;11.70;1.00;;;;;;5070334;28;20233;-75
2021/10/22 02:59:21;;;;;;;2.92;1.02;;;11.70;1.00;;;;;;5070708;28;20613;-75
2021/10/22 03:01:48;;;;;;;2.88;1.15;;;11.70;1.00;;;;;;5071336;28;20217;-75
2021/10/22 03:04:17;;;;;;;4.78;1.38;;;11.60;1.00;;;;;;5070506;28;20206;-76
2021/10/22 03:06:44;;;;;;;8.93;2.33;;;11.70;1.00;;;;;;5070679;28;20206;-76
2021/10/22 03:09:11;;;;;;;2.78;1.00;;;11.80;1.00;;;;;;5069915;28;20248;-76
2021/10/22 03:11:38;;;;;;;4.32;1.15;;;11.80;1.00;;;;;;5070350;28;20202;-77
2021/10/22 03:14:04;;;;;;;5.07;1.05;;;11.80;1.00;;;;;;5070076;28;20755;-76
2021/10/22 03:16:31;;;;;;;2.08;0.73;;;11.70;1.00;;;;;;5070108;28;20234;-75
2021/10/22 03:18:58;;;;;;;3.67;1.30;;;11.80;1.00;;;;;;5069895;28;20673;-75
2021/10/22 03:21:27;;;;;;;3.97;0.73;;;11.80;1.00;;;;;;5070159;28;20275;-75
2021/10/22 03:23:56;;;;;;;2.97;0.95;;;11.80;1.00;;;;;;5069938;28;20248;-76
2021/10/22 03:26:24;;;;;;;2.22;0.90;;;11.70;1.00;;;;;;5070353;28;20678;-76
2021/10/22 03:28:51;;;;;;;4.80;0.85;;;11.70;1.00;;;;;;5056630;28;20206;-76
2021/10/22 03:31:18;;;;;;;1.80;0.80;;;11.70;1.00;;;;;;5070777;28;20210;-76
2021/10/22 03:33:45;;;;;;;6.05;1.27;;;11.50;1.00;;;;;;5070336;28;20791;-75
2021/10/22 03:36:12;;;;;;;2.22;0.80;;;11.60;1.00;;;;;;5069600;28;20276;-76
2021/10/22 03:38:41;;;;;;;6.55;1.45;;;11.60;1.00;;;;;;5070077;28;20268;-76
2021/10/22 03:41:08;;;;;;;5.43;2.10;;;11.50;1.00;;;;;;5069580;28;20206;-75
2021/10/22 03:43:35;;;;;;;3.70;2.70;;;11.50;1.00;;;;;;5070359;28;20202;-75
2021/10/22 03:46:04;;;;;;;2.13;0.75;;;11.40;1.00;;;;;;5072681;28;20654;-76
2021/10/22 03:48:31;;;;;;;3.28;1.13;;;11.50;1.00;;;;;;5074036;28;20260;-76
2021/10/22 03:50:59;;;;;;;2.50;0.80;;;11.50;1.00;;;;;;5073496;28;20210;-76
2021/10/22 03:53:26;;;;;;;2.65;1.38;;;11.40;1.00;;;;;;5074040;28;20218;-76
2021/10/22 03:55:54;;;;;;;5.20;0.95;;;11.40;1.00;;;;;;5073571;28;20260;-76
2021/10/22 03:58:21;;;;;;;10.68;1.13;;;11.50;1.00;;;;;;5074086;28;20228;-75
2021/10/22 04:00:48;;;;;;;2.35;0.90;;;11.60;1.00;;;;;;5074237;28;20801;-76
2021/10/22 04:03:15;;;;;;;3.35;0.90;;;11.70;1.00;;;;;;5073723;28;20335;-80
2021/10/22 04:05:43;;;;;;;5.45;1.33;;;11.70;1.00;;;;;;5073856;28;20213;-76
2021/10/22 04:08:10;;;;;;;3.40;1.40;;;11.80;1.00;;;;;;5073290;28;20210;-75
2021/10/22 04:10:41;;;;;;;4.47;1.02;;;11.80;1.00;;;;;;5073829;28;20216;-75
2021/10/22 04:13:09;;;;;;;3.90;0.80;;;11.90;1.00;;;;;;5073373;28;20214;-75
2021/10/22 04:15:36;;;;;;;3.75;0.90;;;11.90;1.00;;;;;;5073806;28;20255;-75
2021/10/22 04:18:03;;;;;;;2.53;1.55;;;11.80;1.00;;;;;;5072898;28;20603;-75
2021/10/22 04:20:30;;;;;;;3.83;1.17;;;11.70;1.00;;;;;;5074016;28;20267;-75
2021/10/22 04:22:58;;;;;;;5.70;1.00;;;11.80;1.00;;;;;;5073247;28;20210;-75
2021/10/22 04:25:25;;;;;;;6.97;1.83;;;11.80;1.00;;;;;;5059830;28;20202;-76
2021/10/22 04:27:52;;;;;;;1.60;0.80;;;11.70;1.00;;;;;;5073266;28;20267;-76
2021/10/22 04:30:21;;;;;;;3.15;0.75;;;11.70;1.00;;;;;;5073066;28;20268;-76
2021/10/22 04:32:49;;;;;;;6.13;1.05;;;11.60;1.00;;;;;;5074039;28;20278;-76
2021/10/22 04:35:16;;;;;;;5.28;1.35;;;11.60;1.00;;;;;;5073361;28;20210;-77
2021/10/22 04:37:50;;;;;;;5.45;1.13;;;11.50;1.00;;;;;;5072437;28;20767;-78
2021/10/22 04:40:31;;;;;;;3.53;1.27;;;11.40;1.00;;;;;;5072609;28;20209;-77
2021/10/22 04:43:00;;;;;;;4.93;1.58;;;11.20;1.00;;;;;;5071573;28;20222;-77
2021/10/22 04:45:30;;;;;;;1.38;0.90;;;11.20;1.00;;;;;;5072094;28;20267;-77
2021/10/22 04:47:57;;;;;;;4.38;1.02;;;11.30;1.00;;;;;;5071387;28;20210;-77
2021/10/22 04:50:24;;;;;;;3.53;1.17;;;11.30;1.00;;;;;;5071841;28;20210;-77
2021/10/22 04:52:54;;;;;;;2.97;1.27;;;11.40;1.00;;;;;;5071599;28;20251;-77
2021/10/22 04:55:22;;;;;;;4.43;2.92;;;11.40;1.00;;;;;;5071080;28;20264;-77
2021/10/22 04:57:49;;;;;;;5.22;1.25;;;11.40;1.00;;;;;;5071910;28;20321;-77
2021/10/22 05:00:17;;;;;;;5.15;1.45;;;11.50;1.00;;;;;;5071582;28;20628;-76
2021/10/22 05:02:46;;;;;;;4.75;1.00;;;11.50;1.00;;;;;;5071956;28;20304;-76
2021/10/22 05:05:13;;;;;;;3.63;0.90;;;11.40;1.00;;;;;;5071194;28;20283;-76
2021/10/22 05:07:40;;;;;;;1.95;1.60;;;11.40;1.00;;;;;;5071771;28;20210;-76
2021/10/22 05:10:09;;;;;;;2.25;1.38;;;11.40;1.00;;;;;;5069585;28;20255;-78
2021/10/22 05:12:38;;;;;;;4.47;1.38;;;11.40;1.00;;;;;;5071677;28;20206;-76
2021/10/22 05:15:07;;;;;;;3.05;1.58;;;11.40;1.00;;;;;;5070568;28;20259;-76
2021/10/22 05:17:35;;;;;;;4.18;1.17;;;11.40;1.00;;;;;;5071246;28;20259;-76
2021/10/22 05:20:05;;;;;;;6.07;2.15;;;11.40;1.00;;;;;;5070635;28;20557;-75
2021/10/22 05:22:32;;;;;;;4.28;1.48;;;11.30;1.00;;;;;;5070828;28;20210;-75
2021/10/22 05:24:59;;;;;;;6.10;1.60;;;11.30;1.00;;;;;;5070630;28;20293;-76
2021/10/22 05:27:26;;;;;;;6.00;2.25;;;11.30;1.00;;;;;;5069352;28;20751;-76
2021/10/22 05:29:54;;;;;;;7.40;2.40;;;11.30;1.00;;;;;;5070983;28;20218;-76
2021/10/22 05:32:22;;;;;;;3.08;1.88;;;11.20;1.00;;;;;;5058452;28;20206;-76
2021/10/22 05:34:49;;;;;;;6.07;2.10;;;11.20;1.00;;;;;;5070829;28;20647;-76
2021/10/22 05:37:24;;;;;;;4.50;1.40;;;11.10;1.00;;;;;;4961589;28;3122061;-77
2021/10/22 05:39:57;;;;;;;4.95;1.70;;;11.00;1.00;;;;;;5072297;28;20260;-77
2021/10/22 05:42:24;;;;;;;5.68;1.52;;;11.00;1.00;;;;;;5071613;28;20234;-77
2021/10/22 05:44:54;;;;;;;6.53;1.75;;;11.00;1.00;;;;;;5072234;28;20206;-78
2021/10/22 05:47:21;;;;;;;3.50;1.33;;;11.00;1.00;;;;;;5071647;28;20210;-77
2021/10/22 05:49:50;;;;;;;5.07;1.42;;;11.00;1.00;;;;;;5071964;28;20678;-76
2021/10/22 05:52:19;;;;;;;5.33;2.13;;;11.00;1.00;;;;;;5072523;28;20208;-78
2021/10/22 05:54:46;;;;;;;4.43;1.80;;;10.90;1.00;;;;;;5071910;28;20217;-76
2021/10/22 05:57:13;;;;;;;6.53;1.63;;;10.80;1.00;;;;;;5071517;28;20230;-76
2021/10/22 05:59:42;;;;;;;4.40;2.17;;;10.90;1.00;;;;;;5071685;28;20268;-77
2021/10/22 06:02:15;;;;;;;4.63;2.20;;;10.90;1.00;;;;;;5071232;28;20202;-76
2021/10/22 06:04:45;;;;;;;6.50;2.85;;;11.00;1.00;;;;;;5071093;28;20644;-76
2021/10/22 06:07:12;;;;;;;9.38;2.63;;;10.90;1.00;;;;;;5070987;28;20283;-74
2021/10/22 06:09:41;;;;;;;8.40;2.40;;;10.80;1.00;;;;;;5071061;28;20727;-77
2021/10/22 06:12:08;;;;;;;6.63;2.83;;;10.90;1.00;;;;;;5071221;28;20212;-76
2021/10/22 06:14:35;;;;;;;10.03;2.70;;;11.00;1.00;;;;;;5070189;28;20206;-79
2021/10/22 06:17:03;;;;;;;8.50;2.92;;;11.10;1.00;;;;;;5068860;28;20246;-75
2021/10/22 06:19:34;;;;;;;5.60;3.20;;;11.10;1.00;;;;;;5070541;28;20213;-74
2021/10/22 06:22:34;;;;;;;9.17;2.53;;;11.30;1.00;;;;;;5069157;28;20206;-78
2021/10/22 06:25:03;;;;;;;8.73;2.75;;;11.50;1.00;;;;;;5070401;28;20210;-78
2021/10/22 06:27:30;;;;;;;8.85;2.97;;;11.60;1.00;;;;;;5071231;28;20198;-78
2021/10/22 06:29:57;;;;;;;5.78;2.55;;;11.60;1.00;;;;;;5070757;28;20264;-77
2021/10/22 06:32:24;;;;;;;4.97;3.58;;;11.70;1.00;;;;;;5058555;28;20216;-78
2021/10/22 06:34:52;;;;;;;27.60;4.00;;;11.70;1.00;;;;;;5070884;28;20210;-79
2021/10/22 06:37:19;;;;;;;9.20;3.92;;;11.80;1.00;;;;;;5067527;28;20269;-79
2021/10/22 06:39:47;;;;;;;9.77;3.42;;;11.80;1.00;;;;;;5071042;28;20198;-79
2021/10/22 06:42:15;;;;;;;7.30;3.40;;;11.80;1.00;;;;;;5070104;28;20213;-80
2021/10/22 06:44:42;;;;;;;8.32;4.00;;;11.90;1.00;;;;;;5070788;28;20665;-76
2021/10/22 06:47:09;;;;;;;8.60;3.90;;;11.80;1.00;;;;;;5070361;28;20717;-77
2021/10/22 06:49:36;;;;;;;4.07;2.80;;;11.80;1.00;;;;;;5070646;28;20331;-78
2021/10/22 06:52:05;;;;;;;7.25;3.15;;;11.90;1.00;;;;;;5069794;28;20283;-79
2021/10/22 06:54:31;;;;;;;5.13;2.97;;;12.00;1.00;;;;;;5070390;28;20206;-78
2021/10/22 06:56:58;;;;;;;4.72;2.67;;;12.00;1.00;;;;;;5070277;28;20294;-76
2021/10/22 06:59:27;;;;;;;5.70;2.85;;;12.10;1.00;;;;;;5070567;28;20248;-78
2021/10/22 07:01:55;;;;;;;4.68;2.72;;;12.20;1.00;;;;;;5061556;28;20268;-76
2021/10/22 07:04:22;;;;;;;6.78;3.17;;;12.20;1.00;;;;;;5069597;28;20688;-74
2021/10/22 07:09:33;;;;;;;4.75;2.30;;;12.40;1.00;;;;;;5069001;28;20270;-80
2021/10/22 07:12:02;;;;;;;7.30;2.63;;;12.50;1.00;;;;;;5069975;28;20210;-80
2021/10/22 07:14:34;;;;;;;3.72;1.80;;;12.30;1.00;;;;;;5069891;28;20221;-79
2021/10/22 07:17:01;;;;;;;6.05;2.10;;;12.30;1.00;;;;;;5069746;28;20247;-78
2021/10/22 07:19:28;;;;;;;4.38;2.20;;;12.40;1.00;;;;;;5071197;28;20202;-80
2021/10/22 07:22:00;;;;;;;4.40;1.75;;;12.60;1.00;;;;;;5068996;28;20210;-78
2021/10/22 07:24:27;;;;;;;3.22;2.75;;;12.70;1.00;;;;;;5069638;28;20632;-80
2021/10/22 07:26:54;;;;;;;4.72;2.35;;;12.70;1.00;;;;;;5069865;28;20622;-80
2021/10/22 07:29:21;;;;;;;4.05;1.98;;;12.80;1.00;;;;;;5069544;28;20589;-78
2021/10/22 07:31:49;;;;;;;4.00;1.50;;;12.80;1.00;;;;;;5063727;28;20260;-78
2021/10/22 07:34:20;;;;;;;6.30;2.30;;;12.90;1.00;;;;;;5070069;28;20206;-80
2021/10/22 07:36:48;;;;;;;6.65;1.85;;;13.00;1.00;;;;;;5070365;28;20297;-77
2021/10/22 07:39:16;;;;;;;7.38;2.45;;;13.10;1.00;;;;;;5069611;28;20218;-77
2021/10/22 07:41:43;;;;;;;5.35;2.10;;;13.10;1.00;;;;;;5070224;28;20206;-75
2021/10/22 07:44:10;;;;;;;3.13;2.22;;;13.30;1.00;;;;;;5068353;28;20256;-76
2021/10/22 07:46:38;;;;;;;6.05;1.80;;;13.40;1.00;;;;;;5069704;28;20255;-76
2021/10/22 07:49:06;;;;;;;6.32;2.03;;;13.50;1.00;;;;;;5069156;28;20572;-77
2021/10/22 07:51:33;;;;;;;2.67;1.05;;;13.40;1.00;;;;;;5070064;28;20251;-77
2021/10/22 07:54:00;;;;;;;4.72;1.85;;;13.40;1.00;;;;;;5069699;28;20210;-76
2021/10/22 07:56:27;;;;;;;4.18;1.90;;;13.40;1.00;;;;;;5073005;28;20197;-78
2021/10/22 07:58:54;;;;;;;4.32;1.33;;;13.40;1.00;;;;;;5068797;28;20629;-76
2021/10/22 08:01:22;;;;;;;2.63;1.45;;;13.40;1.00;;;;;;5069787;28;20205;-77
2021/10/22 08:03:50;;;;;;;4.22;1.23;;;13.50;1.00;;;;;;5069998;28;20210;-77
2021/10/22 08:06:18;;;;;;;3.88;1.60;;;13.60;1.00;;;;;;5069579;28;20202;-77
2021/10/22 08:08:46;;;;;;;1.95;0.90;;;13.70;1.00;;;;;;5069844;28;20210;-80
2021/10/22 08:11:14;;;;;;;4.00;1.70;;;13.70;1.00;;;;;;5069418;28;20211;-78
2021/10/22 08:13:42;;;;;;;3.13;1.15;;;13.60;1.00;;;;;;5069567;28;20618;-81
2021/10/22 08:16:09;;;;;;;6.25;1.15;;;13.80;1.00;;;;;;5069788;28;20587;-77
2021/10/22 08:18:37;;;;;;;3.95;1.10;;;13.90;1.00;;;;;;5069676;28;20283;-76
2021/10/22 08:21:16;;;;;;;6.80;1.52;;;14.00;1.00;;;;;;5065563;28;20217;-78
2021/10/22 08:23:45;;;;;;;4.25;1.02;;;14.10;1.00;;;;;;5067645;28;20225;-76
2021/10/22 08:26:12;;;;;;;7.18;1.20;;;14.20;1.00;;;;;;5069114;28;20619;-78
2021/10/22 08:28:39;;;;;;;7.10;1.48;;;14.20;1.00;;;;;;5067507;28;20685;-79
2021/10/22 08:31:06;;;;;;;4.10;1.52;;;14.20;1.00;;;;;;5070410;28;20263;-79
2021/10/22 08:33:34;;;;;;;5.60;1.60;;;14.30;1.00;;;;;;5072777;28;20210;-80
2021/10/22 08:36:01;;;;;;;3.90;1.20;;;14.50;1.00;;;;;;5069361;28;20206;-77
2021/10/22 08:38:28;;;;;;;1.77;1.05;;;14.80;1.00;;;;;;5071561;28;20646;-79
2021/10/22 08:40:58;;;;;;;5.07;1.45;;;14.90;1.00;;;;;;5071476;28;20267;-81
2021/10/22 08:43:27;;;;;;;1.63;1.08;;;14.90;1.00;;;;;;5072903;28;20206;-78
2021/10/22 08:45:56;;;;;;;3.70;1.60;;;14.80;1.00;;;;;;5071967;28;20644;-78
2021/10/22 08:48:23;;;;;;;3.92;1.45;;;14.90;1.00;;;;;;5072727;28;20289;-79
2021/10/22 08:50:51;;;;;;;2.00;1.33;;;14.80;1.00;;;;;;5072335;28;20214;-78
2021/10/22 08:53:18;;;;;;;4.13;1.67;;;14.90;1.00;;;;;;5070962;28;20255;-78
2021/10/22 08:55:46;;;;;;;2.75;1.58;;;15.10;1.00;;;;;;5071315;28;20237;-78
2021/10/22 08:58:18;;;;;;;4.35;2.15;;;15.40;1.00;;;;;;5059781;28;20234;-78
2021/10/22 09:00:46;;;;;;;4.78;1.13;;;15.60;1.00;;;;;;5071763;28;20674;-79
2021/10/22 09:03:14;;;;;;;7.35;1.75;;;15.60;1.00;;;;;;5071625;28;20677;-78
2021/10/22 09:05:57;;;;;;;4.18;1.60;;;15.40;1.00;;;;;;5072564;28;20677;-78
2021/10/22 09:08:32;;;;;;;5.80;2.38;;;15.60;1.00;;;;;;5064203;28;20293;-79
2021/10/22 09:11:00;;;;;;;8.45;1.70;;;15.60;1.00;;;;;;5072106;28;20612;-78
2021/10/22 09:13:31;;;;;;;4.50;1.65;;;15.60;1.00;;;;;;5071647;28;20240;-78
2021/10/22 09:15:59;;;;;;;2.10;1.27;;;15.70;1.00;;;;;;5072140;28;20207;-78
2021/10/22 09:18:29;;;;;;;5.57;1.83;;;15.60;1.00;;;;;;5072072;28;20230;-79
2021/10/22 09:20:58;;;;;;;4.25;1.55;;;15.50;1.00;;;;;;5071117;28;20206;-78
2021/10/22 09:23:27;;;;;;;5.60;1.80;;;15.30;1.00;;;;;;5072499;28;20264;-77
2021/10/22 09:26:12;;;;;;;3.47;1.00;;;15.10;1.00;;;;;;5071366;28;20734;-78
2021/10/22 09:28:41;;;;;;;4.00;1.13;;;15.10;1.00;;;;;;5067311;28;20916;-78
2021/10/22 09:31:10;;;;;;;5.55;1.65;;;15.30;1.00;;;;;;5072100;28;20272;-79
2021/10/22 09:33:50;;;;;;;6.47;1.88;;;15.30;1.00;;;;;;5071907;28;20202;-77
2021/10/22 09:36:31;;;;;;;5.53;1.20;;;15.50;1.00;;;;;;5063049;28;20295;-79
2021/10/22 09:39:05;;;;;;;4.75;1.98;;;15.50;1.00;;;;;;5069647;28;20233;-78
2021/10/22 09:41:31;;;;;;;4.13;2.17;;;15.40;1.00;;;;;;5064933;28;20210;-76
2021/10/22 09:44:17;;;;;;;4.43;1.58;;;15.30;1.00;;;;;;5070320;28;20211;-75
2021/10/22 09:46:44;;;;;;;6.63;3.67;;;15.50;1.00;;;;;;5072498;28;20202;-80
2021/10/22 09:49:11;;;;;;;4.78;2.17;;;15.50;1.00;;;;;;5071125;28;20685;-77
2021/10/22 09:51:39;;;;;;;7.32;1.90;;;15.60;1.00;;;;;;5072296;28;20275;-78
2021/10/22 09:54:09;;;;;;;5.13;2.45;;;15.70;1.00;;;;;;5069146;28;20237;-77
2021/10/22 09:56:37;;;;;;;9.27;3.30;;;15.90;1.00;;;;;;5071412;28;20670;-79
2021/10/22 09:59:08;;;;;;;5.35;2.25;;;15.90;1.00;;;;;;5064188;28;20717;-78
2021/10/22 10:01:37;;;;;;;5.80;3.03;;;15.90;1.00;;;;;;5061411;28;20624;-77
2021/10/22 10:04:05;;;;;;;3.33;1.98;;;15.90;1.00;;;;;;5069783;28;20260;-76
2021/10/22 10:06:33;;;;;;;4.55;2.65;;;15.90;1.00;;;;;;5069640;28;20209;-77
2021/10/22 10:09:01;;;;;;;4.75;2.65;;;15.70;1.00;;;;;;5062878;28;20624;-76
2021/10/22 10:11:29;;;;;;;5.45;1.80;;;15.60;1.00;;;;;;5068370;28;20205;-76
2021/10/22 10:13:57;;;;;;;5.95;2.15;;;15.80;1.00;;;;;;5065059;28;20210;-75
2021/10/22 10:16:27;;;;;;;7.15;2.33;;;15.80;1.00;;;;;;5060178;28;20214;-76
2021/10/22 10:18:57;;;;;;;8.05;2.75;;;15.90;1.00;;;;;;5065405;28;20225;-75
2021/10/22 10:21:27;;;;;;;2.97;1.35;;;16.00;1.00;;;;;;5067419;28;20246;-77
2021/10/22 10:23:55;;;;;;;6.57;1.83;;;16.20;1.00;;;;;;5063819;28;20198;-78
2021/10/22 10:26:28;;;;;;;11.65;4.60;;;16.50;1.00;;;;;;5072285;28;20206;-74
2021/10/22 10:28:57;;;;;;;12.55;1.92;;;16.40;1.00;;;;;;5069689;28;20198;-79
2021/10/22 10:31:38;;;;;;;5.57;2.50;;;16.40;1.00;;;;;;5070066;28;20256;-78
2021/10/22 10:34:39;;;;;;;7.82;2.47;;;16.50;1.00;;;;;;5067379;28;20205;-77
2021/10/22 10:37:24;;;;;;;5.47;2.67;;;16.70;1.00;;;;;;5062161;28;20206;-76
2021/10/22 10:40:00;;;;;;;5.97;3.03;;;16.80;1.00;;;;;;5055441;28;20786;-80
2021/10/22 10:42:33;;;;;;;6.30;2.53;;;16.90;1.00;;;;;;5058748;28;20263;-77
2021/10/22 10:45:03;;;;;;;6.75;1.50;;;16.70;1.00;;;;;;5062206;28;20230;-76
2021/10/22 10:47:55;;;;;;;2.90;1.10;;;16.70;1.00;;;;;;5063644;28;20206;-80
2021/10/22 10:50:24;;;;;;;4.05;0.82;;;16.80;1.00;;;;;;5061105;28;20205;-79
2021/10/22 10:52:53;;;;;;;2.70;1.20;;;16.60;1.00;;;;;;5057675;28;20213;-79
2021/10/22 10:55:30;;;;;;;3.53;1.55;;;16.40;1.00;;;;;;5068350;28;20211;-76
2021/10/22 10:58:13;;;;;;;3.22;2.25;;;16.50;1.00;;;;;;5066283;28;20318;-79
2021/10/22 11:00:42;;;;;;;7.25;1.45;;;16.50;1.00;;;;;;5061626;28;20215;-76
2021/10/22 11:03:15;;;;;;;2.10;1.67;;;16.50;1.00;;;;;;5068449;28;20263;-76
2021/10/22 11:06:04;;;;;;;4.70;1.83;;;16.50;1.00;;;;;;5064908;28;20211;-80
2021/10/22 11:08:58;;;;;;;3.92;1.88;;;16.20;1.00;;;;;;5061512;28;20674;-81
2021/10/22 11:11:39;;;;;;;4.22;1.70;;;16.30;1.00;;;;;;5030390;28;20276;-76
2021/10/22 11:14:21;;;;;;;3.00;1.15;;;16.10;1.00;;;;;;5057343;28;20217;-79
2021/10/22 11:17:01;;;;;;;1.30;1.20;;;16.30;1.00;;;;;;5066591;28;20279;-76
2021/10/22 11:19:36;;;;;;;2.60;1.30;;;16.40;1.00;;;;;;5066230;28;20288;-76
2021/10/22 11:22:09;;;;;;;5.50;2.20;;;16.30;1.00;;;;;;5069773;28;20217;-76
2021/10/22 11:24:38;;;;;;;4.85;2.42;;;16.20;1.00;;;;;;5069577;28;20198;-76
2021/10/22 11:27:07;;;;;;;3.63;1.85;;;15.90;1.00;;;;;;5067616;28;20259;-78
2021/10/22 11:29:36;;;;;;;3.97;1.92;;;15.60;1.00;;;;;;5069869;28;20198;-77
2021/10/22 11:32:09;;;;;;;4.57;1.75;;;15.60;1.00;;;;;;5062907;28;20206;-75
2021/10/22 11:34:39;;;;;;;4.80;2.78;;;15.60;1.00;;;;;;5072398;28;20252;-77
2021/10/22 11:37:08;;;;;;;7.57;2.65;;;16.10;1.00;;;;;;5069784;28;20578;-75
2021/10/22 11:39:38;;;;;;;8.18;2.95;;;16.40;1.00;;;;;;5069336;28;20226;-80
2021/10/22 11:42:11;;;;;;;4.15;1.45;;;16.60;1.00;;;;;;5067512;28;20290;-81
2021/10/22 11:44:39;;;;;;;5.28;2.15;;;16.40;1.00;;;;;;5068101;28;20202;-81
2021/10/22 11:47:08;;;;;;;1.77;1.00;;;16.20;1.00;;;;;;5067088;28;20617;-82
2021/10/22 11:49:38;;;;;;;1.95;1.30;;;15.90;1.00;;;;;;5069613;28;20202;-80
2021/10/22 11:52:08;;;;;;;2.22;1.27;;;15.80;1.00;;;;;;5066077;28;20206;-74
2021/10/22 11:54:36;;;;;;;3.13;1.52;;;16.00;1.00;;;;;;5070190;28;20210;-82
2021/10/22 11:57:05;;;;;;;4.55;1.77;;;16.20;1.00;;;;;;5068747;28;20256;-80
2021/10/22 11:59:33;;;;;;;2.35;1.33;;;16.20;1.00;;;;;;5065839;28;20230;-74
2021/10/22 12:02:07;;;;;;;3.13;1.30;;;16.10;1.00;;;;;;5065064;28;20215;-82
2021/10/22 12:04:37;;;;;;;2.65;1.17;;;15.90;1.00;;;;;;5069302;28;20249;-81
2021/10/22 12:07:05;;;;;;;1.98;0.88;;;15.60;1.00;;;;;;5072431;28;20202;-83
2021/10/22 12:09:35;;;;;;;4.78;1.40;;;15.50;1.00;;;;;;5073451;28;20202;-81
2021/10/22 12:12:11;;;;;;;3.08;1.05;;;15.50;1.00;;;;;;5073511;28;20214;-78
2021/10/22 12:14:40;;;;;;;2.60;0.80;;;15.50;1.00;;;;;;5072564;28;20251;-81
2021/10/22 12:17:10;;;;;;;2.50;1.30;;;15.50;1.00;;;;;;5073229;28;20268;-74
2021/10/22 12:19:42;;;;;;;2.25;0.70;;;15.70;1.00;;;;;;5066647;28;20705;-76
2021/10/22 12:22:10;;;;;;;2.58;1.17;;;16.00;1.00;;;;;;5072553;28;20202;-75
2021/10/22 12:24:42;;;;;;;2.53;1.10;;;16.40;1.00;;;;;;5071988;28;20210;-74
2021/10/22 12:27:11;;;;;;;0.98;0.80;;;16.70;1.00;;;;;;5064176;28;20259;-74
2021/10/22 12:29:57;;;;;;;2.15;0.95;;;17.20;1.00;;;;;;5071974;28;20252;-76
2021/10/22 12:32:49;;;;;;;0.98;0.88;;;17.60;1.00;;;;;;5067516;28;20586;-74
2021/10/22 12:35:32;;;;;;;2.90;0.60;;;17.30;1.00;;;;;;5071483;28;20620;-74
2021/10/22 12:38:06;;;;;;;5.35;2.78;;;17.00;1.00;;;;;;5070257;28;20247;-75
2021/10/22 12:40:35;;;;;;;2.28;1.27;;;16.80;1.00;;;;;;5070819;28;20230;-75
2021/10/22 12:43:22;;;;;;;0.80;0.70;;;16.40;1.00;;;;;;5070485;28;20286;-74
2021/10/22 12:46:16;;;;;;;2.08;1.13;;;16.30;1.00;;;;;;5072226;28;20220;-74
2021/10/22 12:48:46;;;;;;;1.70;0.93;;;16.10;1.00;;;;;;5070659;28;20229;-77
2021/10/22 12:51:17;;;;;;;2.90;0.70;;;15.90;1.00;;;;;;5072179;28;20211;-75
2021/10/22 12:53:45;;;;;;;3.50;1.05;;;15.80;1.00;;;;;;5070306;28;20203;-76
2021/10/22 12:56:14;;;;;;;1.38;0.60;;;16.00;1.00;;;;;;5069956;28;20228;-74
2021/10/22 12:58:54;;;;;;;0.88;0.50;;;16.10;1.00;;;;;;5070683;28;20214;-74
2021/10/22 13:01:21;;;;;;;1.00;0.60;;;16.30;1.00;;;;;;5070756;28;20613;-76
2021/10/22 13:03:58;;;;;;;2.22;0.90;;;16.60;1.00;;;;;;5072448;28;20202;-77
2021/10/22 13:06:35;;;;;;;4.97;0.82;;;16.80;1.00;;;;;;5072510;28;20198;-75
2021/10/22 13:15:19;;;;;;;0.80;0.60;;;16.80;1.00;;;;;;5068408;28;20206;-76
2021/10/22 13:20:42;;;;;;;3.65;1.02;;;16.30;1.00;;;;;;5068201;28;20248;-76
2021/10/22 13:23:13;;;;;;;2.45;0.65;;;16.20;1.00;;;;;;5071502;28;20220;-79